Terminal Aerodrome Forecast
Issued by NWS Spokane, WA

Home | Current Version | Previous Version | Text Only | Print | Product List | Glossary On
Versions: 1 2 3 4 5 6 7 8 9 10 11 12 13 14 15 16 17 18 19 20 21 22 23
000
FTUS46 KOTX 280536
TAFLWS
TAF
KLWS 280536Z 2806/2906 17005KT P6SM SCT060 BKN080 BKN200
     FM280800 VRB04KT P6SM SCT070 BKN200
     FM282000 33006KT P6SM SCT070 SCT200
     FM290300 12004KT P6SM FEW070 SCT200=

USA.gov is the U.S. government's official web portal to all federal, state and local government web resources and services.